createdAt,value
2022-10-20T00:00:16.941Z,7.27
2022-10-20T00:02:45.162Z,9.70
2022-10-20T00:05:13.683Z,7.20
2022-10-20T00:07:41.879Z,9.27
2022-10-20T00:10:10.559Z,10.57
2022-10-20T00:12:38.977Z,9.73
2022-10-20T00:15:09.299Z,10.90
2022-10-20T00:17:37.507Z,7.50
2022-10-20T00:20:06.195Z,10.47
2022-10-20T00:22:34.655Z,11.30
2022-10-20T00:25:03.061Z,8.57
2022-10-20T00:27:31.237Z,10.33
2022-10-20T00:29:59.492Z,9.30
2022-10-20T00:32:29.647Z,6.67
2022-10-20T00:34:57.966Z,7.00
2022-10-20T00:37:26.178Z,6.57
2022-10-20T00:39:54.361Z,8.20
2022-10-20T00:42:22.573Z,8.47
2022-10-20T00:44:55.689Z,9.77
2022-10-20T00:47:27.727Z,8.60
2022-10-20T00:50:08.129Z,6.50
2022-10-20T00:52:36.615Z,7.47
2022-10-20T00:55:05.573Z,7.30
2022-10-20T00:57:34.331Z,7.40
2022-10-20T01:00:02.689Z,6.40
2022-10-20T01:02:30.918Z,8.83
2022-10-20T01:05:00.544Z,7.73
2022-10-20T01:07:28.781Z,5.60
2022-10-20T01:09:57.045Z,6.00
2022-10-20T01:12:30.209Z,10.10
2022-10-20T01:15:02.417Z,7.50
2022-10-20T01:17:36.843Z,9.30
2022-10-20T01:20:20.117Z,9.00
2022-10-20T01:23:03.486Z,8.97
2022-10-20T01:25:38.046Z,9.07
2022-10-20T01:28:09.034Z,7.30
2022-10-20T01:30:40.454Z,6.80
2022-10-20T01:33:13.413Z,8.60
2022-10-20T01:35:50.057Z,7.43
2022-10-20T01:38:22.643Z,8.27
2022-10-20T01:40:53.229Z,7.50
2022-10-20T01:43:23.818Z,9.43
2022-10-20T01:45:52.927Z,9.47
2022-10-20T01:48:23.140Z,8.50
2022-10-20T01:50:51.768Z,8.03
2022-10-20T01:53:21.340Z,8.03
2022-10-20T01:55:51.664Z,5.73
2022-10-20T01:58:37.225Z,7.20
2022-10-20T02:01:12.060Z,5.30
2022-10-20T02:03:45.606Z,6.20
2022-10-20T02:06:25.823Z,6.73
2022-10-20T02:08:55.474Z,8.87
2022-10-20T02:11:27.435Z,6.57
2022-10-20T02:13:57.918Z,6.07
2022-10-20T02:16:29.280Z,7.47
2022-10-20T02:21:26.220Z,7.03
2022-10-20T02:23:56.288Z,7.03
2022-10-20T02:26:26.389Z,8.43
2022-10-20T02:28:56.034Z,5.90
2022-10-20T02:31:25.718Z,6.67
2022-10-20T02:33:54.377Z,7.33
2022-10-20T02:36:23.329Z,10.93
2022-10-20T02:38:51.514Z,8.73
2022-10-20T02:41:19.731Z,10.67
2022-10-20T02:43:47.937Z,7.57
2022-10-20T02:46:17.245Z,7.40
2022-10-20T02:48:47.203Z,6.63
2022-10-20T02:51:17.294Z,7.20
2022-10-20T02:53:45.652Z,7.10
2022-10-20T02:56:13.913Z,7.33
2022-10-20T02:58:42.097Z,6.67
2022-10-20T03:01:10.291Z,7.27
2022-10-20T03:03:38.571Z,6.97
2022-10-20T03:06:11.763Z,10.00
2022-10-20T03:08:40.042Z,5.87
2022-10-20T03:11:08.666Z,7.00
2022-10-20T03:13:36.943Z,7.17
2022-10-20T03:16:05.227Z,6.80
2022-10-20T03:18:33.475Z,8.23
2022-10-20T03:21:01.691Z,7.47
2022-10-20T03:23:31.266Z,14.33
2022-10-20T03:26:02.878Z,13.07
2022-10-20T03:28:31.145Z,11.37
2022-10-20T03:30:59.372Z,13.50
2022-10-20T03:33:28.077Z,9.47
2022-10-20T03:35:56.285Z,11.73
2022-10-20T03:38:24.892Z,11.63
2022-10-20T03:40:54.548Z,8.90
2022-10-20T03:43:22.925Z,12.63
2022-10-20T03:45:51.172Z,12.70
2022-10-20T03:48:19.387Z,12.20
2022-10-20T03:50:47.598Z,12.10
2022-10-20T03:53:15.955Z,13.77
2022-10-20T03:55:44.152Z,11.50
2022-10-20T03:58:13.708Z,8.33
2022-10-20T04:00:41.938Z,9.17
2022-10-20T04:03:10.258Z,7.47
2022-10-20T04:05:38.529Z,8.47
2022-10-20T04:08:06.746Z,8.60
2022-10-20T04:10:34.955Z,7.90
2022-10-20T04:13:03.800Z,9.93
2022-10-20T04:15:33.515Z,9.00
2022-10-20T04:18:01.764Z,13.50
2022-10-20T04:20:30.181Z,10.87
2022-10-20T04:22:58.427Z,11.23
2022-10-20T04:25:26.699Z,8.00
2022-10-20T04:27:55.913Z,13.13
2022-10-20T04:30:26.758Z,9.77
2022-10-20T04:32:56.349Z,10.20
2022-10-20T04:35:24.562Z,10.77
2022-10-20T04:37:52.882Z,9.70
2022-10-20T04:40:21.143Z,10.00
2022-10-20T04:42:49.440Z,11.50
2022-10-20T04:45:17.755Z,11.30
2022-10-20T04:47:46.018Z,7.93
2022-10-20T04:50:15.650Z,8.23
2022-10-20T04:52:43.997Z,7.47
2022-10-20T04:55:12.295Z,14.47
2022-10-20T04:57:40.533Z,14.20
2022-10-20T05:00:09.171Z,13.17
2022-10-20T05:02:37.444Z,10.17
2022-10-20T05:05:05.981Z,7.80
2022-10-20T05:07:36.378Z,9.67
2022-10-20T05:10:05.780Z,8.60
2022-10-20T05:12:34.378Z,11.50
2022-10-20T05:15:02.919Z,11.70
2022-10-20T05:17:31.511Z,9.17
2022-10-20T05:19:59.967Z,10.83
2022-10-20T05:22:28.240Z,9.07
2022-10-20T05:25:12.843Z,7.97
2022-10-20T05:27:46.718Z,8.60
2022-10-20T05:30:15.090Z,8.63
2022-10-20T05:32:43.336Z,8.20
2022-10-20T05:35:11.718Z,7.30
2022-10-20T05:37:39.961Z,8.97
2022-10-20T05:40:10.658Z,7.77
2022-10-20T05:42:39.147Z,8.60
2022-10-20T05:45:08.302Z,10.17
2022-10-20T05:47:36.625Z,9.10
2022-10-20T05:50:06.298Z,9.10
2022-10-20T05:52:36.370Z,8.00
2022-10-20T05:55:05.057Z,8.30
2022-10-20T05:57:34.793Z,11.60
2022-10-20T06:00:03.142Z,8.30
2022-10-20T06:02:31.626Z,12.00
2022-10-20T06:04:59.857Z,10.77
2022-10-20T06:07:28.112Z,12.10
2022-10-20T06:09:56.474Z,9.87
2022-10-20T06:12:24.957Z,9.53
2022-10-20T06:14:54.758Z,11.73
2022-10-20T06:17:24.056Z,11.03
2022-10-20T06:19:52.989Z,8.73
2022-10-20T06:22:21.292Z,7.50
2022-10-20T06:24:49.611Z,8.60
2022-10-20T06:27:18.006Z,8.80
2022-10-20T06:29:46.324Z,10.40
2022-10-20T06:32:18.213Z,7.63
2022-10-20T06:34:46.630Z,12.63
2022-10-20T06:37:14.986Z,13.67
2022-10-20T06:39:43.184Z,9.57
2022-10-20T06:42:12.375Z,13.03
2022-10-20T06:44:40.897Z,12.53
2022-10-20T06:47:10.469Z,13.07
2022-10-20T06:49:40.138Z,9.00
2022-10-20T06:52:08.478Z,9.10
2022-10-20T06:54:36.954Z,13.20
2022-10-20T06:57:05.692Z,15.57
2022-10-20T06:59:34.252Z,14.03
2022-10-20T07:02:02.966Z,13.47
2022-10-20T07:04:31.321Z,12.90
2022-10-20T07:07:00.925Z,8.90
2022-10-20T07:09:29.267Z,9.47
2022-10-20T07:11:58.729Z,8.63
2022-10-20T07:14:30.191Z,14.20
2022-10-20T07:17:00.685Z,9.57
2022-10-20T07:19:28.958Z,13.67
2022-10-20T07:21:57.378Z,13.40
2022-10-20T07:24:27.178Z,14.60
2022-10-20T07:26:55.503Z,17.20
2022-10-20T07:29:23.885Z,9.23
2022-10-20T07:31:52.261Z,10.43
2022-10-20T07:34:26.102Z,10.00
2022-10-20T07:36:58.004Z,12.77
2022-10-20T07:39:28.050Z,8.90
2022-10-20T07:41:56.638Z,12.33
2022-10-20T07:44:25.065Z,11.60
2022-10-20T07:46:53.359Z,14.27
2022-10-20T07:52:10.878Z,15.67
2022-10-20T07:54:40.446Z,12.60
2022-10-20T07:57:08.679Z,11.40
2022-10-20T07:59:36.977Z,13.80
2022-10-20T08:02:06.070Z,14.23
2022-10-20T08:04:34.590Z,14.27
2022-10-20T08:07:03.038Z,12.43
2022-10-20T08:09:31.372Z,11.63
2022-10-20T08:12:01.083Z,14.80
2022-10-20T08:14:32.033Z,14.33
2022-10-20T08:17:00.377Z,13.63
2022-10-20T08:22:14.479Z,15.33
2022-10-20T08:24:42.801Z,15.17
2022-10-20T08:27:12.535Z,16.33
2022-10-20T08:29:40.879Z,17.70
2022-10-20T08:32:09.517Z,18.77
2022-10-20T08:34:37.752Z,20.80
2022-10-20T08:37:06.078Z,18.60
2022-10-20T08:39:34.589Z,14.90
2022-10-20T08:42:09.190Z,11.30
2022-10-20T08:44:40.064Z,14.93
2022-10-20T08:47:16.258Z,15.80
2022-10-20T08:49:46.592Z,16.97
2022-10-20T08:52:15.975Z,16.17
2022-10-20T08:54:44.863Z,16.87
2022-10-20T08:57:20.873Z,16.80
2022-10-20T08:59:52.529Z,13.17
2022-10-20T09:02:21.352Z,18.10
2022-10-20T09:04:51.161Z,15.17
2022-10-20T09:07:23.382Z,18.03
2022-10-20T09:09:52.345Z,17.37
2022-10-20T09:12:22.021Z,17.63
2022-10-20T09:14:51.767Z,19.70
2022-10-20T09:17:20.799Z,17.10
2022-10-20T09:19:51.710Z,15.87
2022-10-20T09:22:22.291Z,17.07
2022-10-20T09:24:53.245Z,15.77
2022-10-20T09:27:27.482Z,15.37
2022-10-20T09:29:57.202Z,16.80
2022-10-20T09:32:46.190Z,17.17
2022-10-20T09:35:24.607Z,18.10
2022-10-20T09:37:55.355Z,17.20
2022-10-20T09:40:26.181Z,16.83
2022-10-20T09:42:55.646Z,18.80
2022-10-20T09:45:28.692Z,17.60
2022-10-20T09:48:00.876Z,17.37
2022-10-20T09:50:30.699Z,16.83
2022-10-20T09:53:00.131Z,17.50
2022-10-20T09:55:30.985Z,17.63
2022-10-20T09:58:00.849Z,17.20
2022-10-20T10:00:37.290Z,19.50
2022-10-20T10:03:23.578Z,18.40
2022-10-20T10:05:53.042Z,21.43
2022-10-20T10:08:21.694Z,19.73
2022-10-20T10:10:59.865Z,20.10
2022-10-20T10:13:29.672Z,19.70
2022-10-20T10:16:04.500Z,18.83
2022-10-20T10:18:32.911Z,21.53
2022-10-20T10:21:02.896Z,23.27
2022-10-20T10:23:33.848Z,21.20
2022-10-20T10:26:03.320Z,21.03
2022-10-20T10:28:38.895Z,19.97
2022-10-20T10:31:21.964Z,24.47
2022-10-20T10:33:55.512Z,24.10
2022-10-20T10:36:29.504Z,24.00
2022-10-20T10:38:58.730Z,22.73
2022-10-20T10:41:31.877Z,23.30
2022-10-20T10:44:04.691Z,24.50
2022-10-20T10:46:37.339Z,25.00
2022-10-20T10:49:24.223Z,23.50
2022-10-20T10:51:58.548Z,22.60
2022-10-20T10:54:33.890Z,23.73
2022-10-20T10:57:06.091Z,25.30
2022-10-20T10:59:37.630Z,22.83
2022-10-20T11:02:24.757Z,21.47
2022-10-20T11:07:46.465Z,21.00
2022-10-20T11:10:19.302Z,20.60
2022-10-20T11:13:12.081Z,19.20
2022-10-20T11:15:49.426Z,18.53
2022-10-20T11:18:25.527Z,20.07
2022-10-20T11:20:56.914Z,18.50
2022-10-20T11:23:37.496Z,18.20
2022-10-20T11:26:11.969Z,18.17
2022-10-20T11:28:44.480Z,18.37
2022-10-20T11:31:18.305Z,19.50
2022-10-20T11:33:49.241Z,18.70
2022-10-20T11:36:19.047Z,18.17
2022-10-20T11:38:52.092Z,18.40
2022-10-20T11:41:23.984Z,17.47
2022-10-20T11:43:54.862Z,18.37
2022-10-20T11:46:28.091Z,19.20
2022-10-20T11:49:00.287Z,18.57
2022-10-20T11:51:42.242Z,18.50
2022-10-20T11:54:28.929Z,16.83
2022-10-20T11:57:03.279Z,17.93
2022-10-20T11:59:49.114Z,18.67
2022-10-20T12:02:29.610Z,17.93
2022-10-20T12:05:18.555Z,18.30
2022-10-20T12:08:28.682Z,15.73
2022-10-20T12:11:04.398Z,16.27
2022-10-20T12:13:39.635Z,15.73
2022-10-20T12:16:07.855Z,16.70
2022-10-20T12:18:36.676Z,13.87
2022-10-20T12:21:05.722Z,12.47
2022-10-20T12:23:53.334Z,15.27
2022-10-20T12:26:44.722Z,13.87
2022-10-20T12:29:43.393Z,12.70
2022-10-20T12:32:41.819Z,13.50
2022-10-20T12:35:24.903Z,12.70
2022-10-20T12:37:58.745Z,13.30
2022-10-20T12:40:28.194Z,12.80
2022-10-20T12:42:57.096Z,13.23
2022-10-20T12:45:32.473Z,12.20
2022-10-20T12:48:02.366Z,10.60
2022-10-20T12:50:34.197Z,12.07
2022-10-20T12:53:12.477Z,11.30
2022-10-20T12:55:42.185Z,11.30
2022-10-20T12:58:14.995Z,12.33
2022-10-20T13:01:07.405Z,12.30
2022-10-20T13:03:40.112Z,11.13
2022-10-20T13:06:33.197Z,11.60
2022-10-20T13:09:21.145Z,13.57
2022-10-20T13:12:05.983Z,11.00
2022-10-20T13:14:51.851Z,11.43
2022-10-20T13:17:29.168Z,11.27
2022-10-20T13:20:01.395Z,12.77
2022-10-20T13:22:36.204Z,11.60
2022-10-20T13:25:07.178Z,11.03
2022-10-20T13:27:35.930Z,12.87
2022-10-20T13:30:08.198Z,10.17
2022-10-20T13:32:48.021Z,10.80
2022-10-20T13:35:30.122Z,10.40
2022-10-20T13:38:02.080Z,11.63
2022-10-20T13:40:36.865Z,11.00
2022-10-20T13:43:13.556Z,10.73
2022-10-20T13:45:51.154Z,11.47
2022-10-20T13:48:26.035Z,11.20
2022-10-20T13:50:57.988Z,10.60
2022-10-20T13:53:27.561Z,11.23
2022-10-20T13:55:59.250Z,12.00
2022-10-20T13:58:28.412Z,10.27
2022-10-20T14:01:00.903Z,9.23
2022-10-20T14:03:29.304Z,10.07
2022-10-20T14:05:59.236Z,9.37
2022-10-20T14:08:27.799Z,9.90
2022-10-20T14:10:59.566Z,9.00
2022-10-20T14:13:29.920Z,8.30
2022-10-20T14:15:59.253Z,8.27
2022-10-20T14:18:28.841Z,8.13
2022-10-20T14:20:59.965Z,8.10
2022-10-20T14:23:29.162Z,7.93
2022-10-20T14:25:59.115Z,7.17
2022-10-20T14:28:29.372Z,6.50
2022-10-20T14:30:57.792Z,6.17
2022-10-20T14:33:26.137Z,6.70
2022-10-20T14:35:55.480Z,6.23
2022-10-20T14:38:25.813Z,5.70
2022-10-20T14:40:55.470Z,5.70
2022-10-20T14:43:31.737Z,5.90
2022-10-20T14:46:00.966Z,5.37
2022-10-20T14:48:32.441Z,5.53
2022-10-20T14:51:00.739Z,6.13
2022-10-20T14:53:33.736Z,4.87
2022-10-20T14:56:03.282Z,5.80
2022-10-20T14:58:34.747Z,5.10
2022-10-20T15:01:20.639Z,7.10
2022-10-20T15:03:49.115Z,6.20
2022-10-20T15:06:19.158Z,5.83
2022-10-20T15:08:55.150Z,6.00
2022-10-20T15:11:24.069Z,6.20
2022-10-20T15:13:54.082Z,6.63
2022-10-20T15:16:35.861Z,6.53
2022-10-20T15:19:28.269Z,6.60
2022-10-20T15:21:59.564Z,6.00
2022-10-20T15:24:28.131Z,5.53
2022-10-20T15:26:56.974Z,6.47
2022-10-20T15:29:26.978Z,7.43
2022-10-20T15:31:55.471Z,6.87
2022-10-20T15:34:23.821Z,5.63
2022-10-20T15:36:52.218Z,5.53
2022-10-20T15:39:20.487Z,5.97
2022-10-20T15:41:51.548Z,5.80
2022-10-20T15:44:23.916Z,5.87
2022-10-20T15:46:54.385Z,5.83
2022-10-20T15:49:23.825Z,5.70
2022-10-20T15:51:52.249Z,5.80
2022-10-20T15:54:23.439Z,5.53
2022-10-20T15:56:51.901Z,5.30
2022-10-20T15:59:20.097Z,5.90
2022-10-20T16:01:48.310Z,5.87
2022-10-20T16:04:23.203Z,6.23
2022-10-20T16:06:57.689Z,6.23
2022-10-20T16:09:27.595Z,6.00
2022-10-20T16:11:55.798Z,6.73
2022-10-20T16:14:24.034Z,7.53
2022-10-20T16:16:52.285Z,6.43
2022-10-20T16:19:22.953Z,6.23
2022-10-20T16:21:51.170Z,6.30
2022-10-20T16:24:19.374Z,6.93
2022-10-20T16:26:47.702Z,6.10
2022-10-20T16:29:15.972Z,7.67
2022-10-20T16:31:44.233Z,6.37
2022-10-20T16:34:12.496Z,7.17
2022-10-20T16:36:42.109Z,6.43
2022-10-20T16:39:11.486Z,6.40
2022-10-20T16:41:39.784Z,6.03
2022-10-20T16:44:08.244Z,6.27
2022-10-20T16:46:36.567Z,7.30
2022-10-20T16:49:04.877Z,7.03
2022-10-20T16:51:33.229Z,7.33
2022-10-20T16:54:03.667Z,6.80
2022-10-20T16:56:32.177Z,7.87
2022-10-20T16:59:01.835Z,8.60
2022-10-20T17:01:30.271Z,7.40
2022-10-20T17:03:58.667Z,6.90
2022-10-20T17:06:27.604Z,7.80
2022-10-20T17:08:55.980Z,7.47
2022-10-20T17:11:26.877Z,9.07
2022-10-20T17:13:55.555Z,7.70
2022-10-20T17:16:27.643Z,6.40
2022-10-20T17:18:57.691Z,7.07
2022-10-20T17:21:25.906Z,9.23
2022-10-20T17:23:54.580Z,6.53
2022-10-20T17:26:26.316Z,6.80
2022-10-20T17:28:57.283Z,8.70
2022-10-20T17:31:25.585Z,8.10
2022-10-20T17:33:55.610Z,9.57
2022-10-20T17:36:26.283Z,7.17
2022-10-20T17:38:55.905Z,8.27
2022-10-20T17:41:24.229Z,7.60
2022-10-20T17:43:52.796Z,7.80
2022-10-20T17:46:22.750Z,7.30
2022-10-20T17:48:51.180Z,7.30
2022-10-20T17:51:20.658Z,6.80
2022-10-20T17:53:49.910Z,7.47
2022-10-20T17:56:19.170Z,8.20
2022-10-20T17:58:48.719Z,6.50
2022-10-20T18:01:18.515Z,6.70
2022-10-20T18:03:50.079Z,6.80
2022-10-20T18:06:19.381Z,6.50
2022-10-20T18:08:47.758Z,6.10
2022-10-20T18:11:17.711Z,6.20
2022-10-20T18:13:46.105Z,6.63
2022-10-20T18:16:15.039Z,6.30
2022-10-20T18:18:43.328Z,6.77
2022-10-20T18:21:14.308Z,6.33
2022-10-20T18:23:45.447Z,5.67
2022-10-20T18:26:14.916Z,5.00
2022-10-20T18:28:45.847Z,5.70
2022-10-20T18:31:18.387Z,6.63
2022-10-20T18:33:51.661Z,5.60
2022-10-20T18:36:21.652Z,6.33
2022-10-20T18:38:50.283Z,7.63
2022-10-20T18:41:19.454Z,6.60
2022-10-20T18:43:48.261Z,7.03
2022-10-20T18:46:16.663Z,8.03
2022-10-20T18:48:45.294Z,8.03
2022-10-20T18:51:14.815Z,8.87
2022-10-20T18:53:45.215Z,8.03
2022-10-20T18:56:14.900Z,9.23
2022-10-20T18:58:44.215Z,9.73
2022-10-20T19:01:13.257Z,8.70
2022-10-20T19:03:42.286Z,9.97
2022-10-20T19:06:12.838Z,8.70
2022-10-20T19:08:41.695Z,8.40
2022-10-20T19:11:12.329Z,10.70
2022-10-20T19:13:40.966Z,9.80
2022-10-20T19:16:10.593Z,10.20
2022-10-20T19:18:40.915Z,10.50
2022-10-20T19:21:09.583Z,8.93
2022-10-20T19:23:39.259Z,9.50
2022-10-20T19:26:08.936Z,10.13
2022-10-20T19:28:39.741Z,8.60
2022-10-20T19:31:20.680Z,10.70
2022-10-20T19:33:50.583Z,9.50
2022-10-20T19:36:19.084Z,8.47
2022-10-20T19:38:47.349Z,8.67
2022-10-20T19:41:15.696Z,8.23
2022-10-20T19:43:45.682Z,9.40
2022-10-20T19:46:15.065Z,8.33
2022-10-20T19:48:43.785Z,8.90
2022-10-20T19:51:12.230Z,8.73
2022-10-20T19:53:41.019Z,8.83
2022-10-20T19:56:09.743Z,8.93
2022-10-20T19:58:40.351Z,7.97
2022-10-20T20:01:12.763Z,8.60
2022-10-20T20:03:41.339Z,7.80
2022-10-20T20:06:11.001Z,9.37
2022-10-20T20:08:39.956Z,8.17
2022-10-20T20:11:08.230Z,8.70
2022-10-20T20:13:36.520Z,7.93
2022-10-20T20:16:09.351Z,8.43
2022-10-20T20:18:39.060Z,8.27
2022-10-20T20:21:07.581Z,8.67
2022-10-20T20:23:47.647Z,11.30
2022-10-20T20:26:24.619Z,7.67
2022-10-20T20:28:53.983Z,7.80
2022-10-20T20:31:22.877Z,7.83
2022-10-20T20:33:55.794Z,8.03
2022-10-20T20:36:26.143Z,9.00
2022-10-20T20:38:56.669Z,8.80
2022-10-20T20:41:26.829Z,9.37
2022-10-20T20:43:55.314Z,7.77
2022-10-20T20:46:26.692Z,8.70
2022-10-20T20:48:56.453Z,8.73
2022-10-20T20:51:27.012Z,10.33
2022-10-20T20:53:59.404Z,8.97
2022-10-20T20:56:27.648Z,8.70
2022-10-20T20:58:56.245Z,9.83
2022-10-20T21:01:27.248Z,11.40
2022-10-20T21:03:57.325Z,9.60
2022-10-20T21:06:33.407Z,9.90
2022-10-20T21:09:02.502Z,9.67
2022-10-20T21:11:30.832Z,11.10
2022-10-20T21:13:59.838Z,10.30
2022-10-20T21:16:28.643Z,11.47
2022-10-20T21:18:59.005Z,9.30
2022-10-20T21:21:27.899Z,9.50
2022-10-20T21:23:57.311Z,8.97
2022-10-20T21:26:25.883Z,9.00
2022-10-20T21:28:54.326Z,9.00
2022-10-20T21:31:24.935Z,9.23
2022-10-20T21:33:53.947Z,9.70
2022-10-20T21:36:24.110Z,10.33
2022-10-20T21:38:52.399Z,9.20
2022-10-20T21:41:21.459Z,10.97
2022-10-20T21:43:50.743Z,9.80
2022-10-20T21:46:19.572Z,11.90
2022-10-20T21:48:48.828Z,12.73
2022-10-20T21:51:17.713Z,13.17
2022-10-20T21:53:47.554Z,13.37
2022-10-20T21:56:16.202Z,14.23
2022-10-20T21:58:45.341Z,14.97
2022-10-20T22:01:13.919Z,12.20
2022-10-20T22:03:42.170Z,12.40
2022-10-20T22:06:10.861Z,11.70
2022-10-20T22:08:39.715Z,12.50
2022-10-20T22:11:10.787Z,12.53
2022-10-20T22:13:39.070Z,9.70
2022-10-20T22:16:08.751Z,9.00
2022-10-20T22:18:36.949Z,8.60
2022-10-20T22:21:09.840Z,6.13
2022-10-20T22:23:40.851Z,5.13
2022-10-20T22:26:10.910Z,5.40
2022-10-20T22:28:39.477Z,5.13
2022-10-20T22:31:08.326Z,4.20
2022-10-20T22:33:36.668Z,4.53
2022-10-20T22:36:05.545Z,3.77
2022-10-20T22:38:33.740Z,4.17
2022-10-20T22:41:02.286Z,3.50
2022-10-20T22:43:32.503Z,4.40
2022-10-20T22:46:00.814Z,3.23
2022-10-20T22:48:29.027Z,3.63
2022-10-20T22:50:57.240Z,4.13
2022-10-20T22:53:26.028Z,3.40
2022-10-20T22:55:54.297Z,3.40
2022-10-20T22:58:23.600Z,3.57
2022-10-20T23:00:53.335Z,3.50
2022-10-20T23:03:21.563Z,3.03
2022-10-20T23:05:49.769Z,3.13
2022-10-20T23:08:17.976Z,3.90
2022-10-20T23:10:46.225Z,3.10
2022-10-20T23:13:14.417Z,3.00
2022-10-20T23:15:42.614Z,3.57
2022-10-20T23:18:12.214Z,3.73
2022-10-20T23:20:41.583Z,3.23
2022-10-20T23:23:09.838Z,3.57
2022-10-20T23:25:41.143Z,3.90
2022-10-20T23:28:09.344Z,3.00
2022-10-20T23:30:37.639Z,3.10
2022-10-20T23:33:06.869Z,3.37
2022-10-20T23:35:37.549Z,3.20
2022-10-20T23:38:06.226Z,3.93
2022-10-20T23:40:34.475Z,3.70
2022-10-20T23:43:02.841Z,3.23
2022-10-20T23:45:34.077Z,3.60
2022-10-20T23:48:05.172Z,3.70
2022-10-20T23:50:33.453Z,3.70
2022-10-20T23:53:03.136Z,3.57
2022-10-20T23:55:31.339Z,3.70
2022-10-20T23:57:59.671Z,4.20
